createdAt,value
2018-05-04T00:00:05.624Z,14.50
2018-05-04T00:02:34.487Z,14.40
2018-05-04T00:05:02.568Z,14.40
2018-05-04T00:07:31.539Z,14.30
2018-05-04T00:09:59.644Z,14.30
2018-05-04T00:12:27.781Z,14.30
2018-05-04T00:14:55.910Z,14.30
2018-05-04T00:17:23.991Z,14.30
2018-05-04T00:19:52.098Z,14.20
2018-05-04T00:22:20.167Z,14.10
2018-05-04T00:24:48.287Z,14.10
2018-05-04T00:27:16.391Z,14.10
2018-05-04T00:29:45.274Z,14.20
2018-05-04T00:32:14.151Z,14.20
2018-05-04T00:34:42.266Z,14.20
2018-05-04T00:37:10.367Z,14.10
2018-05-04T00:39:38.460Z,14.00
2018-05-04T00:42:06.545Z,13.90
2018-05-04T00:44:35.438Z,13.90
2018-05-04T00:47:03.530Z,13.80
2018-05-04T00:49:32.397Z,13.80
2018-05-04T00:52:00.499Z,13.70
2018-05-04T00:54:29.044Z,13.80
2018-05-04T00:56:57.133Z,13.90
2018-05-04T00:59:25.247Z,13.90
2018-05-04T01:01:54.094Z,13.90
2018-05-04T01:04:22.206Z,13.90
2018-05-04T01:06:51.147Z,13.80
2018-05-04T01:09:19.232Z,13.80
2018-05-04T01:11:47.312Z,13.80
2018-05-04T01:14:15.417Z,13.80
2018-05-04T01:16:44.261Z,13.60
2018-05-04T01:19:12.373Z,13.60
2018-05-04T01:21:40.443Z,13.70
2018-05-04T01:24:08.559Z,13.50
2018-05-04T01:26:36.673Z,13.50
2018-05-04T01:29:04.781Z,13.40
2018-05-04T01:31:33.668Z,13.40
2018-05-04T01:34:02.513Z,13.40
2018-05-04T01:36:30.679Z,13.40
2018-05-04T01:38:58.802Z,13.50
2018-05-04T01:41:26.904Z,13.40
2018-05-04T01:43:55.041Z,13.40
2018-05-04T01:46:23.173Z,13.40
2018-05-04T01:48:51.299Z,13.40
2018-05-04T01:51:20.200Z,13.40
2018-05-04T01:53:49.075Z,13.40
2018-05-04T01:56:17.960Z,13.30
2018-05-04T01:58:46.055Z,13.30
2018-05-04T02:01:14.174Z,13.30
2018-05-04T02:03:42.278Z,13.30
2018-05-04T02:06:10.405Z,13.20
2018-05-04T02:08:39.257Z,13.20
2018-05-04T02:11:07.348Z,13.10
2018-05-04T02:13:35.461Z,13.20
2018-05-04T02:16:03.588Z,13.20
2018-05-04T02:18:31.675Z,13.20
2018-05-04T02:20:59.799Z,13.30
2018-05-04T02:23:27.901Z,13.30
2018-05-04T02:25:56.000Z,13.30
2018-05-04T02:28:24.890Z,13.40
2018-05-04T02:30:53.797Z,13.40
2018-05-04T02:33:22.665Z,13.40
2018-05-04T02:35:50.780Z,13.40
2018-05-04T02:38:18.860Z,13.40
2018-05-04T02:40:46.996Z,13.40
2018-05-04T02:43:15.113Z,13.40
2018-05-04T02:45:43.249Z,13.40
2018-05-04T02:48:11.348Z,13.30
2018-05-04T02:50:40.244Z,13.20
2018-05-04T02:53:09.106Z,13.20
2018-05-04T02:55:37.211Z,13.20
2018-05-04T02:58:05.313Z,13.10
2018-05-04T03:00:33.421Z,13.00
2018-05-04T03:03:01.514Z,12.90
2018-05-04T03:05:30.395Z,12.70
2018-05-04T03:07:58.476Z,12.70
2018-05-04T03:10:27.331Z,12.70
2018-05-04T03:12:55.536Z,12.70
2018-05-04T03:15:24.389Z,12.70
2018-05-04T03:17:52.503Z,12.70
2018-05-04T03:20:21.403Z,12.60
2018-05-04T03:22:49.521Z,12.60
2018-05-04T03:25:17.643Z,12.60
2018-05-04T03:27:45.754Z,12.60
2018-05-04T03:30:14.611Z,12.60
2018-05-04T03:32:42.739Z,12.50
2018-05-04T03:35:10.845Z,12.60
2018-05-04T03:37:38.997Z,12.60
2018-05-04T03:40:07.095Z,12.60
2018-05-04T03:42:35.222Z,12.70
2018-05-04T03:45:03.516Z,12.80
2018-05-04T03:47:31.674Z,12.80
2018-05-04T03:50:00.538Z,12.80
2018-05-04T03:52:28.741Z,12.70
2018-05-04T03:54:57.607Z,12.70
2018-05-04T03:57:37.516Z,12.70
2018-05-04T04:00:17.359Z,12.60
2018-05-04T04:02:57.323Z,12.60
2018-05-04T04:05:25.418Z,12.60
2018-05-04T04:07:54.308Z,12.70
2018-05-04T04:10:22.413Z,12.70
2018-05-04T04:12:50.547Z,12.60
2018-05-04T04:15:18.722Z,12.70
2018-05-04T04:17:46.827Z,12.60
2018-05-04T04:20:14.909Z,12.70
2018-05-04T04:22:43.024Z,12.60
2018-05-04T04:25:11.153Z,12.60
2018-05-04T04:27:40.864Z,12.60
2018-05-04T04:30:08.969Z,12.60
2018-05-04T04:32:37.093Z,12.80
2018-05-04T04:35:05.195Z,12.90
2018-05-04T04:37:33.302Z,13.00
2018-05-04T04:40:01.407Z,12.90
2018-05-04T04:42:29.540Z,12.90
2018-05-04T04:44:58.405Z,12.70
2018-05-04T04:47:26.548Z,12.70
2018-05-04T04:49:54.665Z,12.70
2018-05-04T04:52:22.774Z,12.80
2018-05-04T04:54:50.880Z,12.80
2018-05-04T04:57:18.983Z,12.80
2018-05-04T04:59:47.085Z,12.80
2018-05-04T05:02:15.983Z,12.90
2018-05-04T05:04:44.825Z,12.90
2018-05-04T05:07:12.942Z,12.80
2018-05-04T05:09:41.803Z,13.00
2018-05-04T05:12:09.916Z,13.00
2018-05-04T05:14:38.009Z,13.10
2018-05-04T05:17:06.154Z,13.00
2018-05-04T05:19:35.056Z,13.20
2018-05-04T05:22:03.987Z,13.10
2018-05-04T05:24:32.840Z,13.30
2018-05-04T05:27:01.727Z,13.30
2018-05-04T05:29:30.615Z,13.30
2018-05-04T05:31:58.720Z,13.30
2018-05-04T05:34:26.840Z,13.40
2018-05-04T05:36:55.703Z,13.30
2018-05-04T05:39:23.811Z,13.30
2018-05-04T05:41:51.924Z,13.40
2018-05-04T05:44:20.111Z,13.50
2018-05-04T05:46:48.216Z,13.60
2018-05-04T05:49:16.337Z,13.70
2018-05-04T05:51:45.214Z,13.90
2018-05-04T05:54:13.315Z,13.90
2018-05-04T05:56:41.461Z,13.90
2018-05-04T05:59:09.680Z,13.90
2018-05-04T06:01:37.779Z,13.90
2018-05-04T06:04:05.915Z,14.00
2018-05-04T06:06:34.023Z,14.20
2018-05-04T06:09:02.176Z,14.10
2018-05-04T06:11:31.037Z,14.20
2018-05-04T06:13:59.942Z,14.20
2018-05-04T06:16:28.888Z,14.10
2018-05-04T06:18:57.037Z,14.00
2018-05-04T06:21:25.171Z,14.10
2018-05-04T06:23:53.290Z,14.10
2018-05-04T06:26:21.451Z,14.20
2018-05-04T06:28:49.600Z,14.20
2018-05-04T06:31:17.717Z,14.40
2018-05-04T06:33:45.906Z,14.30
2018-05-04T06:36:13.950Z,14.40
2018-05-04T06:38:42.915Z,14.50
2018-05-04T06:41:11.047Z,14.50
2018-05-04T06:43:39.250Z,14.50
2018-05-04T06:46:07.335Z,14.60
2018-05-04T06:48:35.593Z,14.70
2018-05-04T06:51:03.639Z,14.80
2018-05-04T06:53:31.766Z,14.80
2018-05-04T06:55:59.855Z,14.60
2018-05-04T06:58:28.003Z,14.60
2018-05-04T07:00:56.118Z,14.80
2018-05-04T07:03:24.977Z,14.80
2018-05-04T07:05:53.100Z,14.80
2018-05-04T07:08:21.438Z,14.80
2018-05-04T07:10:49.591Z,14.90
2018-05-04T07:13:17.713Z,14.80
2018-05-04T07:15:47.556Z,15.40
2018-05-04T07:18:15.678Z,15.30
2018-05-04T07:20:43.833Z,15.60
2018-05-04T07:23:12.006Z,15.70
2018-05-04T07:25:40.221Z,15.70
2018-05-04T07:28:08.425Z,15.60
2018-05-04T07:30:36.667Z,15.60
2018-05-04T07:33:04.813Z,15.60
2018-05-04T07:35:32.948Z,15.60
2018-05-04T07:38:01.836Z,15.70
2018-05-04T07:40:30.129Z,15.70
2018-05-04T07:42:58.316Z,15.60
2018-05-04T07:45:26.416Z,15.70
2018-05-04T07:47:54.533Z,15.90
2018-05-04T07:50:22.709Z,15.90
2018-05-04T07:52:51.722Z,16.10
2018-05-04T07:55:20.019Z,16.10
2018-05-04T07:57:50.149Z,16.20
2018-05-04T08:00:18.267Z,16.50
2018-05-04T08:02:46.394Z,16.70
2018-05-04T08:05:14.552Z,16.80
2018-05-04T08:07:42.708Z,16.90
2018-05-04T08:10:11.731Z,17.10
2018-05-04T08:12:39.915Z,17.10
2018-05-04T08:15:08.044Z,17.10
2018-05-04T08:17:36.166Z,17.20
2018-05-04T08:20:08.395Z,17.50
2018-05-04T08:22:41.127Z,17.60
2018-05-04T08:25:10.285Z,17.50
2018-05-04T08:27:38.930Z,17.60
2018-05-04T08:30:08.060Z,17.70
2018-05-04T08:32:36.643Z,17.90
2018-05-04T08:35:05.383Z,18.00
2018-05-04T08:37:33.551Z,17.90
2018-05-04T08:40:02.311Z,18.00
2018-05-04T08:42:31.283Z,18.30
2018-05-04T08:44:59.498Z,18.30
2018-05-04T08:47:27.686Z,18.50
2018-05-04T08:49:56.625Z,18.50
2018-05-04T08:52:24.994Z,18.50
2018-05-04T08:54:53.252Z,18.60
2018-05-04T08:57:21.438Z,18.70
2018-05-04T08:59:49.508Z,18.70
2018-05-04T09:02:17.605Z,18.80
2018-05-04T09:04:45.720Z,18.70
2018-05-04T09:07:14.486Z,18.60
2018-05-04T09:09:43.420Z,18.50
2018-05-04T09:12:11.598Z,18.50
2018-05-04T09:14:39.995Z,18.90
2018-05-04T09:17:08.732Z,19.20
2018-05-04T09:19:37.700Z,19.50
2018-05-04T09:22:05.903Z,19.50
2018-05-04T09:24:34.842Z,21.40
2018-05-04T09:27:02.999Z,21.30
2018-05-04T09:29:31.119Z,23.90
2018-05-04T09:32:01.481Z,26.30
2018-05-04T09:34:30.381Z,29.50
2018-05-04T09:36:58.537Z,29.40
2018-05-04T09:39:26.632Z,30.70
2018-05-04T09:41:55.533Z,33.80
2018-05-04T09:44:24.473Z,34.40
2018-05-04T09:46:52.749Z,34.30
2018-05-04T09:49:21.706Z,35.10
2018-05-04T09:51:49.839Z,35.00
2018-05-04T09:54:17.960Z,35.50
2018-05-04T09:56:46.081Z,35.20
2018-05-04T09:59:14.244Z,32.90
2018-05-04T10:01:42.459Z,34.30
2018-05-04T10:04:11.350Z,33.80
2018-05-04T10:06:39.476Z,33.80
2018-05-04T10:09:07.616Z,33.70
2018-05-04T10:11:35.800Z,31.80
2018-05-04T10:14:04.750Z,30.30
2018-05-04T10:16:32.975Z,30.60
2018-05-04T10:19:01.116Z,28.30
2018-05-04T10:21:30.208Z,27.50
2018-05-04T10:23:58.481Z,27.50
2018-05-04T10:26:27.604Z,27.10
2018-05-04T10:28:55.838Z,26.50
2018-05-04T10:31:23.989Z,26.70
2018-05-04T10:33:55.118Z,26.10
2018-05-04T10:36:23.997Z,25.50
2018-05-04T10:38:52.973Z,25.20
2018-05-04T10:41:21.039Z,25.20
2018-05-04T10:43:49.211Z,25.30
2018-05-04T10:46:17.364Z,25.20
2018-05-04T10:48:45.487Z,25.20
2018-05-04T10:51:14.623Z,24.80
2018-05-04T10:53:42.753Z,24.80
2018-05-04T10:56:11.159Z,24.60
2018-05-04T10:58:40.073Z,24.80
2018-05-04T11:01:08.504Z,24.70
2018-05-04T11:03:36.724Z,24.10
2018-05-04T11:06:05.083Z,23.90
2018-05-04T11:08:33.309Z,23.90
2018-05-04T11:11:02.994Z,23.90
2018-05-04T11:13:31.571Z,23.90
2018-05-04T11:16:00.068Z,23.90
2018-05-04T11:18:28.287Z,23.50
2018-05-04T11:20:56.479Z,23.30
2018-05-04T11:23:25.002Z,23.40
2018-05-04T11:25:53.268Z,23.00
2018-05-04T11:28:21.490Z,23.10
2018-05-04T11:30:50.112Z,23.20
2018-05-04T11:33:19.280Z,23.40
2018-05-04T11:35:47.592Z,23.30
2018-05-04T11:38:15.694Z,23.40
2018-05-04T11:40:43.913Z,23.30
2018-05-04T11:43:12.328Z,23.40
2018-05-04T11:45:40.433Z,23.30
2018-05-04T11:48:08.777Z,23.40
2018-05-04T11:50:37.135Z,23.70
2018-05-04T11:53:05.302Z,23.90
2018-05-04T11:55:33.614Z,23.90
2018-05-04T11:58:01.985Z,23.90
2018-05-04T12:00:30.429Z,23.80
2018-05-04T12:02:58.559Z,23.90
2018-05-04T12:05:26.698Z,23.90
2018-05-04T12:07:54.852Z,23.70
2018-05-04T12:10:23.091Z,23.60
2018-05-04T12:12:51.228Z,23.50
2018-05-04T12:15:19.421Z,23.20
2018-05-04T12:17:47.540Z,23.30
2018-05-04T12:20:15.883Z,23.40
2018-05-04T12:22:43.996Z,23.20
2018-05-04T12:25:12.102Z,23.50
2018-05-04T12:27:40.241Z,23.80
2018-05-04T12:30:08.365Z,23.90
2018-05-04T12:32:36.562Z,23.90
2018-05-04T12:35:04.738Z,23.70
2018-05-04T12:37:32.911Z,23.80
2018-05-04T12:40:01.031Z,23.80
2018-05-04T12:42:29.213Z,23.90
2018-05-04T12:44:57.403Z,24.00
2018-05-04T12:47:25.769Z,23.90
2018-05-04T12:49:53.897Z,23.80
2018-05-04T12:52:23.051Z,23.60
2018-05-04T12:54:52.075Z,23.50
2018-05-04T12:57:20.641Z,23.40
2018-05-04T12:59:49.223Z,23.20
2018-05-04T13:02:17.876Z,23.00
2018-05-04T13:04:46.868Z,23.00
2018-05-04T13:07:14.963Z,23.00
2018-05-04T13:09:43.085Z,22.90
2018-05-04T13:12:11.179Z,22.70
2018-05-04T13:14:39.423Z,22.90
2018-05-04T13:17:07.634Z,22.90
2018-05-04T13:19:35.835Z,22.70
2018-05-04T13:22:03.989Z,22.90
2018-05-04T13:24:32.197Z,22.90
2018-05-04T13:27:01.137Z,22.80
2018-05-04T13:29:29.290Z,22.80
2018-05-04T13:31:57.549Z,23.00
2018-05-04T13:34:25.675Z,22.80
2018-05-04T13:36:53.805Z,22.70
2018-05-04T13:39:22.052Z,22.70
2018-05-04T13:41:50.945Z,23.00
2018-05-04T13:44:19.801Z,23.30
2018-05-04T13:46:47.913Z,23.40
2018-05-04T13:49:16.805Z,23.50
2018-05-04T13:51:45.731Z,23.50
2018-05-04T13:54:13.865Z,23.50
2018-05-04T13:56:42.768Z,23.60
2018-05-04T13:59:11.752Z,23.80
2018-05-04T14:01:39.883Z,23.80
2018-05-04T14:04:08.077Z,24.00
2018-05-04T14:06:36.268Z,24.30
2018-05-04T14:09:04.515Z,24.40
2018-05-04T14:11:32.856Z,24.40
2018-05-04T14:14:01.928Z,24.50
2018-05-04T14:16:30.174Z,24.50
2018-05-04T14:18:58.442Z,24.80
2018-05-04T14:21:26.576Z,25.00
2018-05-04T14:23:54.683Z,24.70
2018-05-04T14:26:22.817Z,24.50
2018-05-04T14:28:51.897Z,24.10
2018-05-04T14:31:20.019Z,24.00
2018-05-04T14:33:48.258Z,24.10
2018-05-04T14:36:16.405Z,24.10
2018-05-04T14:38:44.608Z,24.10
2018-05-04T14:41:12.821Z,24.10
2018-05-04T14:43:41.678Z,24.30
2018-05-04T14:46:09.820Z,24.30
2018-05-04T14:48:37.959Z,24.40
2018-05-04T14:51:06.871Z,24.20
2018-05-04T14:53:34.995Z,24.20
2018-05-04T14:56:03.137Z,24.10
2018-05-04T14:58:32.009Z,23.80
2018-05-04T15:01:00.187Z,23.80
2018-05-04T15:03:28.339Z,23.50
2018-05-04T15:05:57.259Z,24.10
2018-05-04T15:08:25.414Z,24.10
2018-05-04T15:10:54.289Z,24.30
2018-05-04T15:13:22.616Z,24.30
2018-05-04T15:15:50.803Z,24.10
2018-05-04T15:18:18.925Z,24.10
2018-05-04T15:20:47.818Z,23.70
2018-05-04T15:23:16.427Z,23.60
2018-05-04T15:25:45.149Z,23.40
2018-05-04T15:28:13.275Z,23.10
2018-05-04T15:30:45.636Z,23.10
2018-05-04T15:33:13.892Z,23.20
2018-05-04T15:35:42.055Z,23.00
2018-05-04T15:38:10.595Z,23.00
2018-05-04T15:40:39.557Z,22.90
2018-05-04T15:43:07.721Z,22.90
2018-05-04T15:45:35.928Z,22.90
2018-05-04T15:48:09.737Z,22.90
2018-05-04T15:50:43.619Z,22.80
2018-05-04T15:53:11.794Z,22.80
2018-05-04T15:55:39.985Z,22.80
2018-05-04T15:58:08.912Z,22.80
2018-05-04T16:00:37.781Z,22.80
2018-05-04T16:03:06.773Z,22.80
2018-05-04T16:05:35.762Z,22.60
2018-05-04T16:08:03.882Z,22.60
2018-05-04T16:10:32.064Z,22.60
2018-05-04T16:13:00.315Z,22.50
2018-05-04T16:15:29.205Z,22.40
2018-05-04T16:17:58.149Z,22.30
2018-05-04T16:20:26.266Z,22.20
2018-05-04T16:22:54.700Z,22.20
2018-05-04T16:25:22.866Z,22.00
2018-05-04T16:27:51.097Z,21.90
2018-05-04T16:30:19.191Z,21.90
2018-05-04T16:32:48.090Z,21.70
2018-05-04T16:35:16.188Z,21.70
2018-05-04T16:37:44.862Z,21.70
2018-05-04T16:40:13.023Z,21.70
2018-05-04T16:42:41.210Z,21.70
2018-05-04T16:45:11.567Z,21.70
2018-05-04T16:47:45.342Z,21.60
2018-05-04T16:50:13.697Z,21.60
2018-05-04T16:52:41.852Z,21.50
2018-05-04T16:55:12.470Z,21.40
2018-05-04T16:57:40.814Z,21.30
2018-05-04T17:00:09.024Z,21.30
2018-05-04T17:02:37.156Z,21.30
2018-05-04T17:05:06.155Z,21.20
2018-05-04T17:07:34.352Z,21.20
2018-05-04T17:10:02.435Z,21.20
2018-05-04T17:12:30.577Z,21.20
2018-05-04T17:14:59.516Z,21.20
2018-05-04T17:17:27.663Z,21.10
2018-05-04T17:19:55.807Z,21.10
2018-05-04T17:22:23.937Z,21.10
2018-05-04T17:24:52.122Z,21.00
2018-05-04T17:27:20.263Z,20.90
2018-05-04T17:29:48.631Z,20.90
2018-05-04T17:32:17.706Z,20.80
2018-05-04T17:34:45.877Z,20.80
2018-05-04T17:37:14.042Z,20.80
2018-05-04T17:39:42.468Z,20.80
2018-05-04T17:42:11.277Z,20.80
2018-05-04T17:44:39.440Z,20.80
2018-05-04T17:47:08.348Z,20.60
2018-05-04T17:49:36.517Z,20.60
2018-05-04T17:52:04.815Z,20.60
2018-05-04T17:54:33.063Z,20.60
2018-05-04T17:57:01.412Z,20.50
2018-05-04T17:59:29.693Z,20.50
2018-05-04T18:01:58.575Z,20.50
2018-05-04T18:04:26.685Z,20.40
2018-05-04T18:06:54.819Z,20.40
2018-05-04T18:09:22.940Z,20.30
2018-05-04T18:11:51.450Z,20.20
2018-05-04T18:14:19.584Z,20.20
2018-05-04T18:16:48.823Z,20.20
2018-05-04T18:19:18.749Z,20.10
2018-05-04T18:21:49.168Z,20.10
2018-05-04T18:24:17.549Z,20.10
2018-05-04T18:26:45.766Z,20.00
2018-05-04T18:29:13.968Z,19.90
2018-05-04T18:31:42.830Z,20.00
2018-05-04T18:34:11.075Z,20.00
2018-05-04T18:36:39.222Z,20.00
2018-05-04T18:39:08.113Z,19.90
2018-05-04T18:41:37.688Z,19.90
2018-05-04T18:44:06.353Z,19.90
2018-05-04T18:46:35.396Z,19.70
2018-05-04T18:49:04.280Z,19.70
2018-05-04T18:51:33.168Z,19.60
2018-05-04T18:54:02.526Z,19.60
2018-05-04T18:56:30.689Z,19.40
2018-05-04T18:58:58.849Z,19.40
2018-05-04T19:01:27.849Z,19.30
2018-05-04T19:03:56.017Z,19.30
2018-05-04T19:06:24.895Z,19.10
2018-05-04T19:08:53.824Z,19.00
2018-05-04T19:11:22.263Z,19.00
2018-05-04T19:13:50.534Z,19.00
2018-05-04T19:16:19.070Z,19.00
2018-05-04T19:18:48.436Z,18.90
2018-05-04T19:21:16.626Z,18.90
2018-05-04T19:23:44.773Z,18.90
2018-05-04T19:26:12.859Z,18.80
2018-05-04T19:28:41.913Z,18.70
2018-05-04T19:31:10.055Z,18.70
2018-05-04T19:33:38.246Z,18.70
2018-05-04T19:36:06.399Z,18.70
2018-05-04T19:38:35.611Z,18.60
2018-05-04T19:41:03.879Z,18.60
2018-05-04T19:43:32.028Z,18.60
2018-05-04T19:46:00.342Z,18.50
2018-05-04T19:48:28.543Z,18.40
2018-05-04T19:51:01.259Z,18.40
2018-05-04T19:53:32.321Z,18.20
2018-05-04T19:56:03.989Z,18.20
2018-05-04T19:58:33.857Z,18.20
2018-05-04T20:01:02.065Z,18.20
2018-05-04T20:03:31.053Z,18.10
2018-05-04T20:05:59.560Z,18.10
2018-05-04T20:08:28.196Z,18.10
2018-05-04T20:10:56.455Z,18.10
2018-05-04T20:13:27.863Z,17.90
2018-05-04T20:15:57.023Z,17.90
2018-05-04T20:18:27.788Z,18.00
2018-05-04T20:20:57.555Z,18.00
2018-05-04T20:23:25.737Z,17.90
2018-05-04T20:25:53.867Z,18.00
2018-05-04T20:28:22.451Z,17.90
2018-05-04T20:30:51.384Z,17.90
2018-05-04T20:33:19.617Z,17.90
2018-05-04T20:35:47.907Z,17.80
2018-05-04T20:38:17.467Z,17.80
2018-05-04T20:40:47.786Z,17.80
2018-05-04T20:43:17.915Z,17.70
2018-05-04T20:45:46.168Z,17.70
2018-05-04T20:48:20.877Z,17.60
2018-05-04T20:50:49.453Z,17.50
2018-05-04T20:53:17.621Z,17.50
2018-05-04T20:55:46.736Z,17.40
2018-05-04T20:58:14.996Z,17.40
2018-05-04T21:00:44.721Z,17.40
2018-05-04T21:03:12.932Z,17.40
2018-05-04T21:05:41.119Z,17.40
2018-05-04T21:08:09.380Z,17.30
2018-05-04T21:10:39.842Z,17.30
2018-05-04T21:13:08.096Z,17.30
2018-05-04T21:15:37.460Z,17.20
2018-05-04T21:18:05.767Z,17.20
2018-05-04T21:20:34.482Z,17.20
2018-05-04T21:23:02.803Z,17.20
2018-05-04T21:25:31.838Z,17.10
2018-05-04T21:27:59.962Z,17.20
2018-05-04T21:30:28.969Z,17.10
2018-05-04T21:35:32.833Z,17.10
2018-05-04T21:38:02.540Z,17.00
2018-05-04T21:40:31.297Z,17.00
2018-05-04T21:42:59.463Z,16.90
2018-05-04T21:45:28.427Z,16.60
2018-05-04T21:47:58.957Z,16.60
2018-05-04T21:50:28.760Z,16.50
2018-05-04T21:52:56.986Z,16.50
2018-05-04T21:55:25.259Z,16.50
2018-05-04T21:57:53.393Z,16.40
2018-05-04T22:00:22.543Z,16.40
2018-05-04T22:02:51.187Z,16.40
2018-05-04T22:05:20.146Z,16.30
2018-05-04T22:07:49.312Z,16.30
2018-05-04T22:10:17.573Z,16.30
2018-05-04T22:12:45.861Z,16.30
2018-05-04T22:15:14.522Z,16.30
2018-05-04T22:17:42.697Z,16.30
2018-05-04T22:20:10.906Z,16.10
2018-05-04T22:22:39.181Z,16.10
2018-05-04T22:25:12.070Z,16.20
2018-05-04T22:27:40.176Z,16.10
2018-05-04T22:30:09.200Z,16.10
2018-05-04T22:32:37.376Z,16.10
2018-05-04T22:35:05.705Z,15.90
2018-05-04T22:37:33.887Z,15.80
2018-05-04T22:40:06.249Z,15.80
2018-05-04T22:42:34.388Z,15.70
2018-05-04T22:45:02.543Z,15.70
2018-05-04T22:47:30.751Z,15.70
2018-05-04T22:49:58.885Z,15.90
2018-05-04T22:52:27.084Z,16.00
2018-05-04T22:54:56.051Z,15.90
2018-05-04T22:57:24.350Z,15.90
2018-05-04T22:59:52.641Z,15.80
2018-05-04T23:02:20.800Z,15.90
2018-05-04T23:04:49.821Z,15.70
2018-05-04T23:07:17.853Z,15.70
2018-05-04T23:09:46.025Z,15.70
2018-05-04T23:12:14.349Z,15.70
2018-05-04T23:14:42.498Z,15.70
2018-05-04T23:17:10.646Z,15.70
2018-05-04T23:19:38.871Z,15.70
2018-05-04T23:22:07.059Z,15.60
2018-05-04T23:24:35.191Z,15.60
2018-05-04T23:27:03.438Z,15.50
2018-05-04T23:29:31.595Z,15.40
2018-05-04T23:31:59.787Z,15.30
2018-05-04T23:34:28.080Z,15.30
2018-05-04T23:36:56.924Z,15.30
2018-05-04T23:39:25.247Z,15.30
2018-05-04T23:41:54.347Z,15.40
2018-05-04T23:44:22.401Z,15.40
2018-05-04T23:46:50.567Z,15.40
2018-05-04T23:49:18.708Z,15.50
2018-05-04T23:51:46.812Z,15.60
2018-05-04T23:54:14.905Z,15.60
2018-05-04T23:56:43.817Z,15.50
2018-05-04T23:59:12.017Z,15.50
